createdAt,value
2023-02-06T00:02:07.936Z,62.25
2023-02-06T00:04:34.754Z,61.89
2023-02-06T00:07:01.560Z,62.00
2023-02-06T00:09:28.216Z,62.27
2023-02-06T00:11:54.982Z,61.95
2023-02-06T00:14:21.650Z,61.95
2023-02-06T00:16:48.430Z,62.37
2023-02-06T00:19:15.128Z,61.99
2023-02-06T00:21:42.937Z,62.12
2023-02-06T00:24:09.768Z,62.03
2023-02-06T00:26:36.704Z,61.66
2023-02-06T00:29:03.644Z,61.87
2023-02-06T00:31:30.472Z,61.72
2023-02-06T00:33:57.259Z,61.73
2023-02-06T00:36:25.636Z,61.97
2023-02-06T00:38:52.487Z,61.63
2023-02-06T00:41:19.850Z,61.97
2023-02-06T00:43:46.516Z,61.81
2023-02-06T00:46:13.320Z,61.34
2023-02-06T00:48:40.347Z,61.66
2023-02-06T00:51:07.088Z,61.47
2023-02-06T00:53:36.344Z,61.68
2023-02-06T00:56:03.354Z,61.62
2023-02-06T00:58:30.078Z,61.35
2023-02-06T01:00:56.930Z,61.29
2023-02-06T01:03:23.669Z,61.18
2023-02-06T01:05:50.479Z,61.44
2023-02-06T01:08:17.165Z,60.93
2023-02-06T01:10:44.637Z,61.35
2023-02-06T01:13:11.748Z,60.85
2023-02-06T01:15:41.009Z,61.22
2023-02-06T01:18:07.749Z,61.32
2023-02-06T01:20:34.505Z,60.72
2023-02-06T01:23:03.261Z,60.80
2023-02-06T01:25:31.573Z,60.97
2023-02-06T01:27:58.490Z,60.83
2023-02-06T01:30:25.304Z,60.96
2023-02-06T01:32:52.004Z,60.46
2023-02-06T01:35:18.935Z,60.53
2023-02-06T01:37:45.594Z,60.57
2023-02-06T01:40:14.975Z,60.22
2023-02-06T01:42:41.833Z,60.65
2023-02-06T01:45:26.925Z,60.26
2023-02-06T01:48:03.961Z,60.34
2023-02-06T01:50:33.518Z,60.42
2023-02-06T01:53:00.985Z,59.93
2023-02-06T01:55:29.184Z,60.14
2023-02-06T01:57:58.409Z,59.93
2023-02-06T02:00:25.488Z,60.28
2023-02-06T02:02:52.246Z,60.02
2023-02-06T02:05:19.884Z,60.09
2023-02-06T02:07:51.713Z,60.33
2023-02-06T02:10:18.501Z,60.30
2023-02-06T02:12:45.363Z,60.12
2023-02-06T02:15:12.205Z,60.55
2023-02-06T02:17:48.130Z,60.41
2023-02-06T02:20:18.176Z,60.21
2023-02-06T02:22:53.922Z,60.49
2023-02-06T02:25:51.580Z,60.24
2023-02-06T02:29:05.953Z,60.11
2023-02-06T02:31:53.767Z,60.57
2023-02-06T02:34:38.824Z,60.47
2023-02-06T02:37:42.103Z,60.39
2023-02-06T02:40:19.408Z,60.80
2023-02-06T02:42:52.896Z,60.76
2023-02-06T02:45:21.627Z,60.82
2023-02-06T02:47:58.410Z,60.90
2023-02-06T02:50:26.041Z,60.52
2023-02-06T02:52:52.852Z,60.88
2023-02-06T02:55:22.819Z,60.50
2023-02-06T02:57:58.469Z,60.63
2023-02-06T03:00:26.280Z,60.99
2023-02-06T03:02:54.600Z,60.55
2023-02-06T03:05:24.445Z,60.83
2023-02-06T03:07:58.860Z,60.53
2023-02-06T03:10:44.088Z,60.48
2023-02-06T03:13:22.401Z,60.52
2023-02-06T03:15:57.367Z,60.44
2023-02-06T03:18:59.493Z,60.19
2023-02-06T03:21:28.389Z,60.48
2023-02-06T03:23:58.720Z,60.08
2023-02-06T03:26:27.472Z,60.03
2023-02-06T03:28:56.944Z,60.41
2023-02-06T03:31:29.307Z,60.29
2023-02-06T03:34:01.082Z,60.00
2023-02-06T03:36:28.272Z,60.22
2023-02-06T03:38:55.104Z,60.14
2023-02-06T03:41:25.734Z,60.16
2023-02-06T03:43:53.275Z,59.93
2023-02-06T03:46:20.176Z,60.20
2023-02-06T03:48:49.769Z,59.83
2023-02-06T03:51:21.800Z,59.49
2023-02-06T03:53:50.099Z,59.73
2023-02-06T03:56:24.225Z,60.00
2023-02-06T03:58:50.997Z,59.72
2023-02-06T04:01:18.612Z,59.53
2023-02-06T04:03:45.916Z,59.49
2023-02-06T04:06:12.589Z,59.52
2023-02-06T04:08:39.420Z,59.66
2023-02-06T04:11:06.217Z,59.34
2023-02-06T04:13:33.056Z,59.35
2023-02-06T04:16:01.238Z,59.49
2023-02-06T04:18:29.799Z,59.57
2023-02-06T04:20:56.439Z,59.05
2023-02-06T04:23:23.156Z,59.14
2023-02-06T04:25:49.830Z,59.19
2023-02-06T04:28:16.646Z,59.31
2023-02-06T04:30:43.390Z,59.26
2023-02-06T04:33:10.227Z,59.18
2023-02-06T04:35:37.172Z,58.77
2023-02-06T04:38:04.236Z,59.12
2023-02-06T04:40:31.030Z,58.86
2023-02-06T04:42:57.789Z,58.66
2023-02-06T04:45:24.449Z,58.62
2023-02-06T04:47:51.224Z,58.85
2023-02-06T04:50:18.279Z,58.76
2023-02-06T04:52:45.061Z,58.85
2023-02-06T04:55:11.821Z,58.79
2023-02-06T04:57:41.148Z,58.41
2023-02-06T05:00:09.377Z,58.63
2023-02-06T05:02:39.722Z,58.57
2023-02-06T05:05:08.156Z,58.30
2023-02-06T05:07:35.352Z,58.56
2023-02-06T05:10:02.748Z,58.55
2023-02-06T05:12:29.505Z,58.50
2023-02-06T05:14:56.348Z,58.13
2023-02-06T05:17:23.091Z,58.34
2023-02-06T05:19:49.852Z,58.13
2023-02-06T05:22:16.529Z,57.85
2023-02-06T05:24:43.336Z,57.79
2023-02-06T05:27:10.025Z,57.82
2023-02-06T05:29:36.867Z,57.51
2023-02-06T05:32:12.773Z,57.70
2023-02-06T05:34:40.931Z,57.33
2023-02-06T05:37:07.601Z,57.65
2023-02-06T05:39:34.313Z,57.38
2023-02-06T05:42:00.965Z,57.44
2023-02-06T05:44:27.914Z,57.12
2023-02-06T05:46:54.792Z,57.58
2023-02-06T05:49:21.566Z,57.16
2023-02-06T05:51:48.283Z,57.10
2023-02-06T05:54:17.068Z,57.63
2023-02-06T05:56:44.256Z,57.18
2023-02-06T05:59:11.025Z,57.38
2023-02-06T06:01:37.906Z,57.46
2023-02-06T06:04:04.755Z,57.27
2023-02-06T06:06:34.893Z,57.38
2023-02-06T06:09:02.029Z,57.14
2023-02-06T06:11:29.977Z,57.02
2023-02-06T06:13:56.716Z,56.93
2023-02-06T06:16:23.464Z,58.17
2023-02-06T06:18:51.284Z,58.80
2023-02-06T06:21:17.995Z,59.73
2023-02-06T06:23:44.725Z,60.81
2023-02-06T06:26:11.474Z,60.98
2023-02-06T06:28:38.926Z,61.38
2023-02-06T06:31:08.099Z,62.04
2023-02-06T06:33:35.124Z,62.29
2023-02-06T06:36:01.842Z,62.46
2023-02-06T06:38:28.745Z,62.44
2023-02-06T06:40:55.442Z,62.74
2023-02-06T06:43:22.293Z,63.06
2023-02-06T06:45:49.215Z,63.21
2023-02-06T06:48:15.980Z,63.21
2023-02-06T06:50:42.734Z,63.55
2023-02-06T06:53:09.539Z,63.85
2023-02-06T06:55:36.550Z,63.56
2023-02-06T06:58:03.418Z,64.13
2023-02-06T07:00:30.202Z,63.77
2023-02-06T07:02:57.188Z,63.76
2023-02-06T07:05:23.983Z,64.28
2023-02-06T07:07:50.770Z,64.06
2023-02-06T07:10:17.729Z,64.18
2023-02-06T07:12:44.612Z,64.20
2023-02-06T07:15:11.436Z,63.76
2023-02-06T07:17:38.800Z,63.78
2023-02-06T07:20:06.065Z,63.79
2023-02-06T07:22:32.949Z,64.05
2023-02-06T07:24:59.588Z,64.11
2023-02-06T07:27:26.322Z,64.27
2023-02-06T07:29:53.052Z,64.46
2023-02-06T07:32:19.820Z,64.32
2023-02-06T07:34:46.606Z,64.02
2023-02-06T07:37:13.420Z,64.38
2023-02-06T07:39:40.167Z,64.15
2023-02-06T07:42:06.978Z,64.32
2023-02-06T07:44:49.032Z,64.20
2023-02-06T07:47:15.868Z,64.20
2023-02-06T07:49:42.501Z,64.29
2023-02-06T07:52:09.286Z,63.89
2023-02-06T07:54:36.079Z,63.91
2023-02-06T07:57:02.939Z,63.39
2023-02-06T07:59:29.756Z,63.77
2023-02-06T08:01:56.558Z,63.33
2023-02-06T08:04:23.236Z,63.42
2023-02-06T08:06:50.116Z,63.01
2023-02-06T08:09:19.666Z,63.45
2023-02-06T08:11:49.369Z,63.65
2023-02-06T08:14:16.152Z,63.26
2023-02-06T08:16:43.156Z,63.67
2023-02-06T08:19:12.316Z,63.90
2023-02-06T08:21:39.019Z,63.55
2023-02-06T08:24:06.193Z,63.73
2023-02-06T08:26:33.225Z,63.76
2023-02-06T08:29:02.082Z,63.57
2023-02-06T08:31:32.616Z,63.58
2023-02-06T08:34:00.069Z,63.41
2023-02-06T08:36:28.004Z,63.61
2023-02-06T08:38:54.853Z,63.11
2023-02-06T08:41:29.509Z,62.89
2023-02-06T08:43:58.415Z,62.79
2023-02-06T08:46:28.302Z,62.76
2023-02-06T08:49:00.041Z,62.46
2023-02-06T08:51:30.244Z,62.55
2023-02-06T08:53:58.490Z,62.29
2023-02-06T08:56:25.860Z,62.18
2023-02-06T08:58:53.667Z,62.33
2023-02-06T09:01:21.178Z,62.05
2023-02-06T09:03:48.043Z,61.98
2023-02-06T09:06:15.929Z,61.80
2023-02-06T09:08:42.778Z,61.70
2023-02-06T09:11:12.332Z,61.07
2023-02-06T09:13:39.430Z,60.82
2023-02-06T09:16:06.966Z,60.45
2023-02-06T09:18:34.125Z,60.10
2023-02-06T09:21:10.144Z,59.90
2023-02-06T09:23:39.832Z,60.66
2023-02-06T09:26:06.720Z,59.19
2023-02-06T09:28:33.908Z,59.43
2023-02-06T09:31:00.845Z,59.69
2023-02-06T09:33:27.608Z,59.52
2023-02-06T09:36:03.542Z,58.85
2023-02-06T09:38:30.497Z,58.81
2023-02-06T09:40:57.949Z,58.89
2023-02-06T09:43:25.024Z,59.01
2023-02-06T09:46:01.718Z,58.36
2023-02-06T09:48:31.626Z,58.51
2023-02-06T09:51:17.028Z,57.05
2023-02-06T09:53:56.444Z,58.16
2023-02-06T09:56:29.072Z,57.74
2023-02-06T09:59:06.449Z,57.26
2023-02-06T10:01:42.359Z,57.31
2023-02-06T10:04:34.177Z,56.86
2023-02-06T10:07:29.587Z,56.93
2023-02-06T10:10:02.217Z,57.62
2023-02-06T10:12:31.154Z,57.21
2023-02-06T10:15:03.427Z,56.99
2023-02-06T10:17:31.587Z,57.58
2023-02-06T10:20:07.303Z,57.03
2023-02-06T10:22:43.039Z,56.25
2023-02-06T10:25:24.028Z,56.48
2023-02-06T10:28:00.831Z,56.66
2023-02-06T10:30:55.600Z,56.93
2023-02-06T10:33:31.121Z,56.07
2023-02-06T10:36:05.748Z,55.96
2023-02-06T10:39:23.685Z,56.73
2023-02-06T10:42:07.874Z,56.45
2023-02-06T10:45:18.396Z,56.62
2023-02-06T10:47:57.550Z,55.79
2023-02-06T10:50:38.050Z,55.63
2023-02-06T10:53:15.372Z,56.25
2023-02-06T10:55:49.687Z,56.58
2023-02-06T10:58:21.390Z,56.75
2023-02-06T11:00:49.826Z,56.28
2023-02-06T11:03:20.337Z,55.95
2023-02-06T11:05:48.172Z,55.94
2023-02-06T11:08:22.174Z,55.96
2023-02-06T11:10:49.321Z,55.20
2023-02-06T11:13:25.335Z,54.68
2023-02-06T11:16:19.645Z,55.71
2023-02-06T11:18:46.809Z,55.80
2023-02-06T11:21:16.551Z,55.89
2023-02-06T11:23:43.291Z,56.52
2023-02-06T11:26:16.032Z,56.03
2023-02-06T11:28:59.844Z,55.64
2023-02-06T11:31:50.353Z,55.44
2023-02-06T11:34:33.098Z,54.98
2023-02-06T11:37:06.827Z,54.92
2023-02-06T11:39:36.708Z,55.53
2023-02-06T11:42:15.322Z,55.93
2023-02-06T11:44:43.785Z,56.48
2023-02-06T11:47:32.949Z,56.22
2023-02-06T11:50:15.130Z,56.64
2023-02-06T11:52:46.653Z,57.62
2023-02-06T11:55:27.463Z,57.06
2023-02-06T11:58:20.407Z,56.99
2023-02-06T12:00:54.708Z,56.86
2023-02-06T12:03:38.430Z,56.93
2023-02-06T12:06:14.369Z,57.22
2023-02-06T12:08:43.989Z,57.44
2023-02-06T12:11:17.012Z,56.97
2023-02-06T12:13:47.974Z,56.72
2023-02-06T12:16:17.567Z,56.45
2023-02-06T12:18:45.766Z,56.55
2023-02-06T12:21:17.486Z,56.29
2023-02-06T12:23:48.979Z,56.04
2023-02-06T12:26:22.189Z,55.27
2023-02-06T12:29:32.913Z,54.72
2023-02-06T12:32:07.413Z,55.02
2023-02-06T12:34:51.505Z,55.11
2023-02-06T12:37:40.231Z,55.18
2023-02-06T12:40:27.256Z,54.72
2023-02-06T12:43:02.117Z,53.88
2023-02-06T12:45:57.210Z,54.34
2023-02-06T12:48:29.532Z,53.00
2023-02-06T12:51:14.627Z,53.08
2023-02-06T12:54:10.368Z,52.36
2023-02-06T12:56:44.143Z,52.28
2023-02-06T12:59:17.944Z,51.91
2023-02-06T13:02:00.127Z,51.67
2023-02-06T13:04:33.109Z,51.51
2023-02-06T13:07:06.428Z,51.81
2023-02-06T13:09:36.464Z,51.85
2023-02-06T13:12:13.513Z,51.30
2023-02-06T13:14:55.128Z,50.85
2023-02-06T13:17:42.725Z,50.36
2023-02-06T13:20:11.732Z,50.40
2023-02-06T13:22:45.365Z,50.34
2023-02-06T13:25:30.403Z,49.83
2023-02-06T13:28:01.113Z,49.83
2023-02-06T13:30:30.930Z,50.11
2023-02-06T13:33:17.903Z,51.29
2023-02-06T13:35:58.462Z,51.42
2023-02-06T13:38:34.364Z,52.16
2023-02-06T13:41:16.186Z,52.84
2023-02-06T13:43:59.808Z,52.45
2023-02-06T13:47:02.305Z,52.07
2023-02-06T13:49:58.232Z,52.27
2023-02-06T13:52:37.505Z,52.16
2023-02-06T13:55:35.623Z,52.09
2023-02-06T13:58:28.042Z,52.79
2023-02-06T14:00:55.321Z,52.75
2023-02-06T14:03:26.091Z,53.27
2023-02-06T14:06:08.345Z,53.48
2023-02-06T14:08:59.522Z,53.56
2023-02-06T14:12:12.309Z,54.00
2023-02-06T14:14:57.918Z,54.70
2023-02-06T14:17:40.173Z,55.00
2023-02-06T14:20:15.950Z,55.09
2023-02-06T14:22:55.238Z,55.34
2023-02-06T14:25:31.190Z,55.13
2023-02-06T14:28:11.543Z,55.60
2023-02-06T14:30:42.821Z,55.40
2023-02-06T14:33:28.366Z,55.55
2023-02-06T14:36:01.261Z,55.83
2023-02-06T14:38:48.420Z,55.48
2023-02-06T14:41:15.421Z,55.13
2023-02-06T14:43:43.751Z,54.72
2023-02-06T14:46:14.742Z,54.38
2023-02-06T14:48:54.901Z,54.47
2023-02-06T14:54:38.664Z,53.87
2023-02-06T14:57:13.662Z,54.24
2023-02-06T14:59:54.478Z,54.11
2023-02-06T15:02:28.801Z,53.97
2023-02-06T15:04:56.097Z,53.51
2023-02-06T15:07:29.823Z,54.07
2023-02-06T15:10:04.051Z,54.36
2023-02-06T15:12:32.221Z,54.40
2023-02-06T15:15:11.026Z,54.38
2023-02-06T15:17:38.827Z,54.08
2023-02-06T15:20:20.869Z,54.40
2023-02-06T15:22:48.036Z,54.18
2023-02-06T15:25:40.633Z,54.38
2023-02-06T15:28:13.074Z,54.49
2023-02-06T15:30:40.391Z,54.75
2023-02-06T15:33:10.332Z,54.51
2023-02-06T15:35:40.686Z,54.38
2023-02-06T15:38:14.036Z,54.72
2023-02-06T15:40:53.675Z,54.75
2023-02-06T15:43:25.146Z,53.92
2023-02-06T15:45:55.879Z,54.71
2023-02-06T15:48:28.083Z,54.38
2023-02-06T15:51:28.664Z,54.83
2023-02-06T15:54:24.650Z,54.87
2023-02-06T15:57:03.397Z,54.69
2023-02-06T15:59:33.491Z,54.88
2023-02-06T16:02:00.842Z,55.00
2023-02-06T16:04:39.724Z,54.91
2023-02-06T16:07:15.653Z,55.00
2023-02-06T16:09:51.601Z,54.77
2023-02-06T16:12:18.933Z,54.79
2023-02-06T16:15:00.023Z,54.71
2023-02-06T16:17:41.305Z,55.10
2023-02-06T16:20:33.144Z,55.27
2023-02-06T16:23:19.643Z,54.93
2023-02-06T16:25:48.908Z,54.94
2023-02-06T16:28:23.264Z,54.95
2023-02-06T16:31:01.970Z,55.52
2023-02-06T16:33:32.554Z,55.67
2023-02-06T16:35:59.660Z,55.86
2023-02-06T16:38:26.560Z,55.83
2023-02-06T16:40:53.841Z,55.95
2023-02-06T16:43:20.656Z,55.77
2023-02-06T16:45:49.211Z,55.76
2023-02-06T16:48:17.612Z,55.78
2023-02-06T16:50:45.501Z,56.11
2023-02-06T16:53:21.998Z,56.34
2023-02-06T16:55:49.554Z,55.97
2023-02-06T16:58:21.812Z,56.04
2023-02-06T17:00:49.233Z,56.31
2023-02-06T17:03:23.021Z,56.28
2023-02-06T17:05:52.158Z,56.39
2023-02-06T17:08:24.196Z,56.25
2023-02-06T17:10:51.154Z,55.98
2023-02-06T17:13:20.176Z,56.67
2023-02-06T17:15:47.705Z,56.06
2023-02-06T17:18:17.250Z,56.15
2023-02-06T17:20:47.182Z,55.98
2023-02-06T17:23:14.402Z,55.57
2023-02-06T17:25:43.088Z,55.77
2023-02-06T17:28:15.648Z,55.42
2023-02-06T17:30:43.031Z,55.03
2023-02-06T17:33:09.901Z,55.08
2023-02-06T17:35:37.105Z,54.94
2023-02-06T17:38:08.609Z,54.84
2023-02-06T17:40:37.514Z,54.39
2023-02-06T17:43:07.052Z,54.73
2023-02-06T17:45:35.010Z,54.58
2023-02-06T17:48:01.881Z,54.17
2023-02-06T17:50:29.095Z,54.32
2023-02-06T17:52:56.247Z,53.79
2023-02-06T17:55:23.880Z,53.33
2023-02-06T17:57:50.726Z,53.49
2023-02-06T18:00:19.410Z,53.79
2023-02-06T18:02:46.284Z,53.53
2023-02-06T18:05:13.036Z,53.03
2023-02-06T18:07:40.317Z,53.52
2023-02-06T18:10:08.433Z,53.63
2023-02-06T18:12:35.347Z,53.16
2023-02-06T18:15:02.227Z,53.45
2023-02-06T18:17:29.051Z,53.53
2023-02-06T18:19:55.828Z,53.47
2023-02-06T18:22:22.696Z,53.38
2023-02-06T18:24:50.564Z,53.41
2023-02-06T18:27:18.370Z,53.48
2023-02-06T18:29:50.111Z,53.04
2023-02-06T18:32:17.854Z,53.14
2023-02-06T18:34:44.670Z,53.54
2023-02-06T18:37:11.455Z,53.45
2023-02-06T18:39:38.739Z,53.30
2023-02-06T18:42:24.194Z,53.70
2023-02-06T18:44:50.913Z,53.89
2023-02-06T18:47:18.885Z,53.55
2023-02-06T18:49:46.178Z,53.75
2023-02-06T18:52:12.999Z,53.77
2023-02-06T18:54:39.768Z,53.72
2023-02-06T18:57:06.817Z,53.62
2023-02-06T18:59:34.411Z,53.79
2023-02-06T19:02:01.223Z,53.86
2023-02-06T19:04:28.008Z,53.89
2023-02-06T19:06:54.906Z,53.50
2023-02-06T19:09:21.600Z,53.89
2023-02-06T19:11:48.773Z,53.62
2023-02-06T19:14:16.995Z,53.98
2023-02-06T19:16:47.447Z,53.95
2023-02-06T19:19:14.485Z,53.58
2023-02-06T19:21:43.550Z,54.03
2023-02-06T19:24:13.031Z,54.03
2023-02-06T19:26:39.938Z,53.93
2023-02-06T19:29:06.698Z,53.78
2023-02-06T19:31:35.035Z,53.68
2023-02-06T19:34:02.336Z,54.06
2023-02-06T19:36:29.992Z,53.87
2023-02-06T19:38:59.261Z,53.51
2023-02-06T19:41:28.491Z,53.92
2023-02-06T19:43:56.446Z,53.91
2023-02-06T19:46:25.554Z,53.97
2023-02-06T19:48:53.431Z,53.69
2023-02-06T19:51:23.653Z,54.02
2023-02-06T19:53:51.804Z,53.96
2023-02-06T19:56:30.386Z,54.01
2023-02-06T19:58:59.049Z,54.11
2023-02-06T20:01:27.269Z,53.97
2023-02-06T20:03:55.466Z,53.79
2023-02-06T20:06:22.523Z,53.91
2023-02-06T20:08:49.570Z,53.85
2023-02-06T20:11:18.687Z,54.26
2023-02-06T20:13:47.098Z,53.83
2023-02-06T20:16:19.361Z,54.21
2023-02-06T20:18:46.250Z,54.06
2023-02-06T20:21:27.970Z,54.38
2023-02-06T20:24:00.452Z,54.29
2023-02-06T20:26:29.998Z,54.42
2023-02-06T20:28:57.328Z,54.36
2023-02-06T20:31:24.255Z,54.44
2023-02-06T20:33:51.026Z,54.03
2023-02-06T20:36:23.249Z,54.33
2023-02-06T20:38:52.511Z,54.51
2023-02-06T20:41:20.496Z,54.33
2023-02-06T20:43:48.110Z,54.20
2023-02-06T20:46:18.498Z,54.22
2023-02-06T20:48:46.122Z,54.28
2023-02-06T20:51:14.208Z,53.93
2023-02-06T20:53:41.244Z,54.31
2023-02-06T20:56:14.618Z,54.34
2023-02-06T20:58:50.344Z,54.19
2023-02-06T21:01:24.700Z,54.54
2023-02-06T21:03:54.300Z,54.64
2023-02-06T21:06:22.338Z,54.54
2023-02-06T21:08:57.443Z,54.11
2023-02-06T21:11:24.235Z,54.34
2023-02-06T21:13:50.950Z,54.40
2023-02-06T21:16:17.718Z,54.57
2023-02-06T21:18:44.472Z,54.60
2023-02-06T21:21:14.294Z,54.67
2023-02-06T21:23:42.385Z,54.98
2023-02-06T21:26:10.405Z,54.55
2023-02-06T21:28:37.984Z,54.80
2023-02-06T21:31:12.694Z,54.49
2023-02-06T21:33:39.826Z,54.67
2023-02-06T21:36:07.711Z,55.09
2023-02-06T21:38:38.170Z,54.88
2023-02-06T21:41:14.198Z,54.53
2023-02-06T21:43:41.319Z,54.89
2023-02-06T21:46:08.119Z,55.02
2023-02-06T21:48:35.607Z,54.56
2023-02-06T21:51:12.778Z,54.72
2023-02-06T21:53:40.115Z,54.67
2023-02-06T21:56:08.266Z,54.65
2023-02-06T21:58:36.205Z,54.73
2023-02-06T22:01:03.380Z,54.64
2023-02-06T22:03:30.181Z,54.73
2023-02-06T22:06:08.409Z,55.00
2023-02-06T22:08:42.037Z,54.82
2023-02-06T22:11:17.161Z,54.44
2023-02-06T22:13:44.644Z,54.69
2023-02-06T22:16:12.991Z,54.75
2023-02-06T22:18:40.271Z,54.57
2023-02-06T22:21:08.258Z,54.49
2023-02-06T22:23:35.527Z,54.67
2023-02-06T22:26:02.341Z,55.06
2023-02-06T22:28:29.109Z,54.95
2023-02-06T22:30:55.918Z,54.80
2023-02-06T22:33:22.745Z,54.86
2023-02-06T22:35:49.450Z,55.21
2023-02-06T22:38:16.227Z,55.31
2023-02-06T22:40:42.970Z,55.17
2023-02-06T22:43:09.732Z,54.90
2023-02-06T22:45:36.763Z,55.20
2023-02-06T22:48:03.884Z,55.29
2023-02-06T22:50:30.553Z,55.18
2023-02-06T22:53:15.844Z,55.30
2023-02-06T22:56:01.295Z,55.13
2023-02-06T22:58:28.125Z,55.31
2023-02-06T23:01:02.268Z,55.60
2023-02-06T23:03:29.143Z,55.56
2023-02-06T23:05:55.840Z,55.53
2023-02-06T23:08:22.617Z,55.20
2023-02-06T23:10:49.362Z,55.10
2023-02-06T23:13:16.150Z,55.37
2023-02-06T23:15:43.100Z,55.06
2023-02-06T23:18:09.994Z,54.86
2023-02-06T23:20:37.399Z,54.86
2023-02-06T23:23:04.500Z,55.15
2023-02-06T23:25:32.148Z,54.29
2023-02-06T23:27:58.922Z,53.89
2023-02-06T23:30:25.688Z,54.17
2023-02-06T23:32:52.500Z,53.55
2023-02-06T23:35:19.144Z,53.64
2023-02-06T23:37:45.929Z,53.38
2023-02-06T23:40:12.738Z,53.44
2023-02-06T23:42:39.442Z,53.03
2023-02-06T23:45:06.517Z,53.36
2023-02-06T23:47:34.898Z,53.13
2023-02-06T23:50:01.589Z,53.33
2023-02-06T23:52:28.318Z,52.69
2023-02-06T23:54:55.039Z,52.66
2023-02-06T23:57:21.918Z,52.85
2023-02-06T23:59:48.732Z,52.85
